createdAt,value
2023-03-23T00:02:37.074Z,100.00
2023-03-23T00:05:11.164Z,100.00
2023-03-23T00:07:47.873Z,100.00
2023-03-23T00:10:18.758Z,100.00
2023-03-23T00:12:51.370Z,100.00
2023-03-23T00:15:26.889Z,100.00
2023-03-23T00:18:04.122Z,100.00
2023-03-23T00:20:42.029Z,100.00
2023-03-23T00:23:19.762Z,100.00
2023-03-23T00:25:54.331Z,100.00
2023-03-23T00:28:27.674Z,100.00
2023-03-23T00:31:03.218Z,100.00
2023-03-23T00:33:39.649Z,100.00
2023-03-23T00:36:11.741Z,100.00
2023-03-23T00:38:45.915Z,100.00
2023-03-23T00:41:17.375Z,100.00
2023-03-23T00:43:50.215Z,100.00
2023-03-23T00:46:22.259Z,100.00
2023-03-23T00:48:55.602Z,100.00
2023-03-23T00:51:26.346Z,100.00
2023-03-23T00:53:57.280Z,100.00
2023-03-23T00:56:28.188Z,100.00
2023-03-23T00:58:58.729Z,100.00
2023-03-23T01:01:30.719Z,100.00
2023-03-23T01:04:05.948Z,100.00
2023-03-23T01:06:40.793Z,100.00
2023-03-23T01:09:16.065Z,100.00
2023-03-23T01:11:47.013Z,100.00
2023-03-23T01:14:19.461Z,100.00
2023-03-23T01:16:50.499Z,100.00
2023-03-23T01:19:24.788Z,100.00
2023-03-23T01:21:55.247Z,100.00
2023-03-23T01:24:25.745Z,100.00
2023-03-23T01:26:56.287Z,100.00
2023-03-23T01:29:27.450Z,100.00
2023-03-23T01:31:58.152Z,100.00
2023-03-23T01:34:31.529Z,100.00
2023-03-23T01:37:02.530Z,100.00
2023-03-23T01:39:33.502Z,100.00
2023-03-23T01:42:04.966Z,100.00
2023-03-23T01:45:07.567Z,100.00
2023-03-23T01:47:41.556Z,100.00
2023-03-23T01:50:19.526Z,100.00
2023-03-23T01:52:50.463Z,100.00
2023-03-23T01:55:21.924Z,100.00
2023-03-23T01:57:54.053Z,100.00
2023-03-23T02:00:26.165Z,100.00
2023-03-23T02:02:59.631Z,100.00
2023-03-23T02:05:37.368Z,100.00
2023-03-23T02:08:17.813Z,100.00
2023-03-23T02:10:51.570Z,100.00
2023-03-23T02:13:23.417Z,100.00
2023-03-23T02:16:08.236Z,100.00
2023-03-23T02:18:53.203Z,100.00
2023-03-23T02:22:04.246Z,100.00
2023-03-23T02:25:01.768Z,100.00
2023-03-23T02:28:06.048Z,100.00
2023-03-23T02:31:04.125Z,100.00
2023-03-23T02:33:44.591Z,100.00
2023-03-23T02:36:22.541Z,100.00
2023-03-23T02:39:00.758Z,100.00
2023-03-23T02:41:36.345Z,100.00
2023-03-23T02:44:09.342Z,100.00
2023-03-23T02:46:42.296Z,100.00
2023-03-23T02:49:19.858Z,100.00
2023-03-23T02:51:52.541Z,100.00
2023-03-23T02:54:27.034Z,100.00
2023-03-23T02:57:00.570Z,100.00
2023-03-23T02:59:34.076Z,100.00
2023-03-23T03:02:11.654Z,100.00
2023-03-23T03:04:51.208Z,100.00
2023-03-23T03:07:49.993Z,100.00
2023-03-23T03:10:28.041Z,100.00
2023-03-23T03:13:06.498Z,100.00
2023-03-23T03:15:43.816Z,100.00
2023-03-23T03:18:18.600Z,100.00
2023-03-23T03:20:59.085Z,100.00
2023-03-23T03:23:33.425Z,100.00
2023-03-23T03:26:10.955Z,100.00
2023-03-23T03:28:51.525Z,100.00
2023-03-23T03:31:28.650Z,100.00
2023-03-23T03:34:02.768Z,100.00
2023-03-23T03:36:39.556Z,100.00
2023-03-23T03:39:14.052Z,100.00
2023-03-23T03:41:44.842Z,100.00
2023-03-23T03:44:16.468Z,100.00
2023-03-23T03:46:46.809Z,100.00
2023-03-23T03:49:17.122Z,100.00
2023-03-23T03:51:51.596Z,100.00
2023-03-23T03:54:27.095Z,100.00
2023-03-23T03:56:59.276Z,100.00
2023-03-23T03:59:53.705Z,100.00
2023-03-23T04:02:24.408Z,100.00
2023-03-23T04:04:56.865Z,100.00
2023-03-23T04:07:30.618Z,100.00
2023-03-23T04:10:01.936Z,100.00
2023-03-23T04:12:35.396Z,100.00
2023-03-23T04:15:27.949Z,100.00
2023-03-23T04:18:00.342Z,100.00
2023-03-23T04:20:32.596Z,100.00
2023-03-23T04:23:07.440Z,100.00
2023-03-23T04:25:39.353Z,100.00
2023-03-23T04:28:11.805Z,100.00
2023-03-23T04:30:54.312Z,100.00
2023-03-23T04:33:27.526Z,100.00
2023-03-23T04:36:19.882Z,100.00
2023-03-23T04:39:04.884Z,100.00
2023-03-23T04:41:35.829Z,100.00
2023-03-23T04:44:18.635Z,100.00
2023-03-23T04:46:55.408Z,100.00
2023-03-23T04:49:26.852Z,100.00
2023-03-23T04:52:09.243Z,100.00
2023-03-23T04:55:03.780Z,100.00
2023-03-23T04:57:34.405Z,100.00
2023-03-23T05:00:31.993Z,100.00
2023-03-23T05:03:05.801Z,100.00
2023-03-23T05:05:38.646Z,100.00
2023-03-23T05:08:11.897Z,100.00
2023-03-23T05:10:55.652Z,100.00
2023-03-23T05:13:29.595Z,100.00
2023-03-23T05:16:07.018Z,100.00
2023-03-23T05:18:39.526Z,100.00
2023-03-23T05:21:15.414Z,100.00
2023-03-23T05:23:56.615Z,100.00
2023-03-23T05:26:32.526Z,100.00
2023-03-23T05:29:12.578Z,100.00
2023-03-23T05:31:57.674Z,100.00
2023-03-23T05:34:37.350Z,100.00
2023-03-23T05:37:11.212Z,100.00
2023-03-23T05:39:54.872Z,100.00
2023-03-23T05:42:53.371Z,100.00
2023-03-23T05:45:33.410Z,100.00
2023-03-23T05:48:04.446Z,100.00
2023-03-23T05:50:35.824Z,100.00
2023-03-23T05:53:08.164Z,100.00
2023-03-23T05:55:43.967Z,100.00
2023-03-23T05:58:34.265Z,100.00
2023-03-23T06:01:05.906Z,100.00
2023-03-23T06:03:37.310Z,100.00
2023-03-23T06:06:14.647Z,100.00
2023-03-23T06:09:09.163Z,100.00
2023-03-23T06:11:49.833Z,100.00
2023-03-23T06:14:51.563Z,100.00
2023-03-23T06:17:30.792Z,100.00
2023-03-23T06:20:01.443Z,100.00
2023-03-23T06:22:34.878Z,100.00
2023-03-23T06:25:17.421Z,100.00
2023-03-23T06:27:48.490Z,100.00
2023-03-23T06:30:22.303Z,100.00
2023-03-23T06:32:53.592Z,100.00
2023-03-23T06:35:40.221Z,100.00
2023-03-23T06:38:18.493Z,100.00
2023-03-23T06:40:57.142Z,100.00
2023-03-23T06:43:29.550Z,100.00
2023-03-23T06:46:18.588Z,100.00
2023-03-23T06:48:59.388Z,100.00
2023-03-23T06:51:39.727Z,100.00
2023-03-23T06:54:11.632Z,100.00
2023-03-23T06:56:44.421Z,100.00
2023-03-23T06:59:15.276Z,100.00
2023-03-23T07:01:50.085Z,100.00
2023-03-23T07:04:21.272Z,99.10
2023-03-23T07:07:04.281Z,96.27
2023-03-23T07:09:43.386Z,99.13
2023-03-23T07:12:15.511Z,95.42
2023-03-23T07:14:51.411Z,95.04
2023-03-23T07:17:25.100Z,96.46
2023-03-23T07:20:19.040Z,92.66
2023-03-23T07:22:49.783Z,91.25
2023-03-23T07:25:47.172Z,89.49
2023-03-23T07:28:23.015Z,88.44
2023-03-23T07:31:07.662Z,86.87
2023-03-23T07:33:41.698Z,88.05
2023-03-23T07:36:14.304Z,84.05
2023-03-23T07:38:45.355Z,83.07
2023-03-23T07:41:18.885Z,83.06
2023-03-23T07:43:50.748Z,80.59
2023-03-23T07:46:35.551Z,83.67
2023-03-23T07:49:19.332Z,79.56
2023-03-23T07:52:02.667Z,78.53
2023-03-23T07:54:33.630Z,78.23
2023-03-23T07:57:09.304Z,78.22
2023-03-23T07:59:46.870Z,75.22
2023-03-23T08:02:17.441Z,74.58
2023-03-23T08:05:02.540Z,74.24
2023-03-23T08:08:00.140Z,74.46
2023-03-23T08:10:59.493Z,73.76
2023-03-23T08:13:49.016Z,71.42
2023-03-23T08:16:38.447Z,70.15
2023-03-23T08:19:11.731Z,69.01
2023-03-23T08:22:15.310Z,66.90
2023-03-23T08:25:22.531Z,65.52
2023-03-23T08:28:17.680Z,64.03
2023-03-23T08:31:11.645Z,63.40
2023-03-23T08:33:54.764Z,63.50
2023-03-23T08:36:45.507Z,65.09
2023-03-23T08:39:19.312Z,62.67
2023-03-23T08:42:08.378Z,62.41
2023-03-23T08:45:02.320Z,61.22
2023-03-23T08:47:53.096Z,62.45
2023-03-23T08:50:42.495Z,62.68
2023-03-23T08:53:47.366Z,61.13
2023-03-23T08:56:47.169Z,59.98
2023-03-23T08:59:40.004Z,61.35
2023-03-23T09:02:22.103Z,60.42
2023-03-23T09:05:00.825Z,59.82
2023-03-23T09:07:51.702Z,60.16
2023-03-23T09:10:22.976Z,59.07
2023-03-23T09:12:57.979Z,58.08
2023-03-23T09:15:34.214Z,58.71
2023-03-23T09:18:07.807Z,58.31
2023-03-23T09:20:38.681Z,58.20
2023-03-23T09:23:09.642Z,57.48
2023-03-23T09:25:40.634Z,55.71
2023-03-23T09:28:15.069Z,57.96
2023-03-23T09:30:53.309Z,56.65
2023-03-23T09:33:24.093Z,55.32
2023-03-23T09:35:54.797Z,55.66
2023-03-23T09:38:26.497Z,53.64
2023-03-23T09:41:04.597Z,53.99
2023-03-23T09:44:09.348Z,53.62
2023-03-23T09:46:52.200Z,55.08
2023-03-23T09:49:28.133Z,51.21
2023-03-23T09:52:02.213Z,51.61
2023-03-23T09:54:38.356Z,51.96
2023-03-23T09:57:18.391Z,52.25
2023-03-23T09:59:57.679Z,51.05
2023-03-23T10:02:35.475Z,49.73
2023-03-23T10:05:28.870Z,47.75
2023-03-23T10:08:00.235Z,49.63
2023-03-23T10:10:41.085Z,47.60
2023-03-23T10:13:20.169Z,47.81
2023-03-23T10:15:54.730Z,49.34
2023-03-23T10:18:31.094Z,47.54
2023-03-23T10:21:04.818Z,48.62
2023-03-23T10:24:02.625Z,49.80
2023-03-23T10:26:45.580Z,48.59
2023-03-23T10:29:21.323Z,49.28
2023-03-23T10:32:00.385Z,48.83
2023-03-23T10:34:36.025Z,47.96
2023-03-23T10:37:13.339Z,48.63
2023-03-23T10:39:52.052Z,47.47
2023-03-23T10:42:31.250Z,47.71
2023-03-23T10:45:04.626Z,47.60
2023-03-23T10:47:40.287Z,47.64
2023-03-23T10:50:17.577Z,47.03
2023-03-23T10:52:49.304Z,47.05
2023-03-23T10:55:24.211Z,48.82
2023-03-23T10:58:05.865Z,46.03
2023-03-23T11:00:38.062Z,45.82
2023-03-23T11:03:34.523Z,47.19
2023-03-23T11:06:09.083Z,46.69
2023-03-23T11:08:43.071Z,45.96
2023-03-23T11:11:17.556Z,45.79
2023-03-23T11:13:52.591Z,45.62
2023-03-23T11:16:31.762Z,45.75
2023-03-23T11:19:16.947Z,44.76
2023-03-23T11:21:53.054Z,45.25
2023-03-23T11:24:26.924Z,43.70
2023-03-23T11:27:00.662Z,43.91
2023-03-23T11:29:33.301Z,44.11
2023-03-23T11:32:10.417Z,45.56
2023-03-23T11:34:46.464Z,46.03
2023-03-23T11:37:20.987Z,46.03
2023-03-23T11:39:53.592Z,46.28
2023-03-23T11:42:29.788Z,45.85
2023-03-23T11:45:20.224Z,47.20
2023-03-23T11:48:01.195Z,45.85
2023-03-23T11:50:38.980Z,46.75
2023-03-23T11:53:26.873Z,45.66
2023-03-23T11:56:10.428Z,45.62
2023-03-23T11:58:40.969Z,46.70
2023-03-23T12:01:21.488Z,46.13
2023-03-23T12:04:05.441Z,46.86
2023-03-23T12:06:45.955Z,47.21
2023-03-23T12:09:30.219Z,47.07
2023-03-23T12:12:15.388Z,47.68
2023-03-23T12:14:54.713Z,47.33
2023-03-23T12:17:35.842Z,48.06
2023-03-23T12:20:20.229Z,48.00
2023-03-23T12:23:07.255Z,45.53
2023-03-23T12:25:59.918Z,46.10
2023-03-23T12:28:44.195Z,44.78
2023-03-23T12:31:23.051Z,44.29
2023-03-23T12:34:01.639Z,46.51
2023-03-23T12:36:48.912Z,44.84
2023-03-23T12:40:01.776Z,44.64
2023-03-23T12:42:45.001Z,45.36
2023-03-23T12:45:29.329Z,44.60
2023-03-23T12:48:05.020Z,43.62
2023-03-23T12:50:41.210Z,42.78
2023-03-23T12:53:18.092Z,43.81
2023-03-23T12:55:53.783Z,45.42
2023-03-23T12:58:32.485Z,43.20
2023-03-23T13:01:11.014Z,44.00
2023-03-23T13:03:47.565Z,43.85
2023-03-23T13:06:24.534Z,44.47
2023-03-23T13:09:08.024Z,44.50
2023-03-23T13:11:40.621Z,44.92
2023-03-23T13:14:29.686Z,43.66
2023-03-23T13:17:11.145Z,44.68
2023-03-23T13:20:06.194Z,44.58
2023-03-23T13:22:43.239Z,44.24
2023-03-23T13:25:21.553Z,44.39
2023-03-23T13:28:02.755Z,44.66
2023-03-23T13:30:39.104Z,43.50
2023-03-23T13:33:16.910Z,44.21
2023-03-23T13:35:47.560Z,43.77
2023-03-23T13:38:24.515Z,44.15
2023-03-23T13:40:56.615Z,43.88
2023-03-23T13:43:33.072Z,43.79
2023-03-23T13:46:17.838Z,44.25
2023-03-23T13:48:50.681Z,45.18
2023-03-23T13:51:37.777Z,45.77
2023-03-23T13:54:29.972Z,43.82
2023-03-23T13:57:03.075Z,44.08
2023-03-23T13:59:38.153Z,43.84
2023-03-23T14:02:35.904Z,44.96
2023-03-23T14:05:36.255Z,45.40
2023-03-23T14:08:16.194Z,46.29
2023-03-23T14:10:49.068Z,45.88
2023-03-23T14:13:23.915Z,45.87
2023-03-23T14:16:03.816Z,45.93
2023-03-23T14:18:42.077Z,46.07
2023-03-23T14:21:21.500Z,46.78
2023-03-23T14:23:52.375Z,46.18
2023-03-23T14:26:25.051Z,47.32
2023-03-23T14:31:39.666Z,45.73
2023-03-23T14:34:17.570Z,46.40
2023-03-23T14:36:48.454Z,46.29
2023-03-23T14:39:25.275Z,45.49
2023-03-23T14:41:57.895Z,45.76
2023-03-23T14:44:31.164Z,45.80
2023-03-23T14:47:05.309Z,47.36
2023-03-23T14:49:42.768Z,46.29
2023-03-23T14:52:15.253Z,46.49
2023-03-23T14:54:46.649Z,46.95
2023-03-23T14:57:18.852Z,47.30
2023-03-23T14:59:50.433Z,47.70
2023-03-23T15:02:27.484Z,47.24
2023-03-23T15:05:04.983Z,47.66
2023-03-23T15:07:40.693Z,48.46
2023-03-23T15:10:18.589Z,47.21
2023-03-23T15:12:50.899Z,47.29
2023-03-23T15:15:26.416Z,46.82
2023-03-23T15:17:57.240Z,48.47
2023-03-23T15:20:32.901Z,48.24
2023-03-23T15:23:10.882Z,48.29
2023-03-23T15:25:43.160Z,47.72
2023-03-23T15:28:21.019Z,48.22
2023-03-23T15:30:54.371Z,49.13
2023-03-23T15:33:28.929Z,48.65
2023-03-23T15:36:01.963Z,49.79
2023-03-23T15:38:35.584Z,49.56
2023-03-23T15:41:08.933Z,50.12
2023-03-23T15:43:39.334Z,50.24
2023-03-23T15:46:24.585Z,49.39
2023-03-23T15:48:57.299Z,50.20
2023-03-23T15:51:33.472Z,50.23
2023-03-23T15:54:09.040Z,51.17
2023-03-23T15:56:39.337Z,49.94
2023-03-23T15:59:09.611Z,50.51
2023-03-23T16:01:42.605Z,50.43
2023-03-23T16:04:15.557Z,51.81
2023-03-23T16:06:49.141Z,52.07
2023-03-23T16:09:22.709Z,52.62
2023-03-23T16:11:53.087Z,52.68
2023-03-23T16:14:23.264Z,52.94
2023-03-23T16:16:55.478Z,53.36
2023-03-23T16:19:25.720Z,52.82
2023-03-23T16:21:58.607Z,53.99
2023-03-23T16:24:28.793Z,53.37
2023-03-23T16:26:59.094Z,53.24
2023-03-23T16:32:04.744Z,55.02
2023-03-23T16:34:35.921Z,55.13
2023-03-23T16:37:09.583Z,55.35
2023-03-23T16:39:39.849Z,55.72
2023-03-23T16:42:10.124Z,56.68
2023-03-23T16:44:41.142Z,55.69
2023-03-23T16:47:11.331Z,57.27
2023-03-23T16:49:41.748Z,57.82
2023-03-23T16:52:14.536Z,57.84
2023-03-23T16:54:44.988Z,58.61
2023-03-23T16:57:15.869Z,59.71
2023-03-23T16:59:46.522Z,58.68
2023-03-23T17:02:16.916Z,59.71
2023-03-23T17:04:48.597Z,60.38
2023-03-23T17:07:21.900Z,60.69
2023-03-23T17:09:52.130Z,60.92
2023-03-23T17:12:22.411Z,61.19
2023-03-23T17:14:52.852Z,62.33
2023-03-23T17:17:23.095Z,63.35
2023-03-23T17:19:53.345Z,63.90
2023-03-23T17:22:26.475Z,64.60
2023-03-23T17:24:57.567Z,64.99
2023-03-23T17:27:28.480Z,64.98
2023-03-23T17:29:59.561Z,65.16
2023-03-23T17:32:29.852Z,65.29
2023-03-23T17:35:00.034Z,66.01
2023-03-23T17:37:32.906Z,66.48
2023-03-23T17:40:03.557Z,67.86
2023-03-23T17:42:33.708Z,66.95
2023-03-23T17:45:05.188Z,67.57
2023-03-23T17:47:35.501Z,68.12
2023-03-23T17:50:11.206Z,67.12
2023-03-23T17:52:45.503Z,67.28
2023-03-23T17:55:15.752Z,68.24
2023-03-23T17:57:46.144Z,67.74
2023-03-23T18:00:17.720Z,68.83
2023-03-23T18:02:48.005Z,68.74
2023-03-23T18:05:18.301Z,69.41
2023-03-23T18:07:52.540Z,69.14
2023-03-23T18:10:23.495Z,69.13
2023-03-23T18:12:53.883Z,69.20
2023-03-23T18:15:28.293Z,69.68
2023-03-23T18:17:59.825Z,72.11
2023-03-23T18:20:30.319Z,71.45
2023-03-23T18:23:03.853Z,70.25
2023-03-23T18:25:33.764Z,71.09
2023-03-23T18:28:04.535Z,70.52
2023-03-23T18:30:36.788Z,72.02
2023-03-23T18:33:07.192Z,72.64
2023-03-23T18:35:37.628Z,72.81
2023-03-23T18:38:10.672Z,72.69
2023-03-23T18:40:46.176Z,74.22
2023-03-23T18:43:16.860Z,73.68
2023-03-23T18:45:52.653Z,75.07
2023-03-23T18:48:23.829Z,74.75
2023-03-23T18:50:56.000Z,75.08
2023-03-23T18:53:29.617Z,76.21
2023-03-23T18:56:06.466Z,76.49
2023-03-23T18:58:36.758Z,76.59
2023-03-23T19:01:09.635Z,77.10
2023-03-23T19:03:43.820Z,79.47
2023-03-23T19:06:19.634Z,78.39
2023-03-23T19:08:53.756Z,79.52
2023-03-23T19:11:26.159Z,82.12
2023-03-23T19:14:02.437Z,83.35
2023-03-23T19:16:36.051Z,86.04
2023-03-23T19:19:08.499Z,85.38
2023-03-23T19:21:40.283Z,87.54
2023-03-23T19:24:13.913Z,90.04
2023-03-23T19:26:45.192Z,90.37
2023-03-23T19:31:50.937Z,91.88
2023-03-23T19:34:22.153Z,93.50
2023-03-23T19:36:56.179Z,95.20
2023-03-23T19:39:32.285Z,94.27
2023-03-23T19:42:02.537Z,94.06
2023-03-23T19:44:32.801Z,94.98
2023-03-23T19:47:03.838Z,95.28
2023-03-23T19:49:34.116Z,93.72
2023-03-23T19:52:12.180Z,96.76
2023-03-23T19:54:46.617Z,96.06
2023-03-23T19:57:17.092Z,93.70
2023-03-23T19:59:47.492Z,94.31
2023-03-23T20:02:18.058Z,92.77
2023-03-23T20:04:48.369Z,94.20
2023-03-23T20:07:20.488Z,95.04
2023-03-23T20:09:54.119Z,93.79
2023-03-23T20:12:24.276Z,92.19
2023-03-23T20:14:55.180Z,91.50
2023-03-23T20:17:25.523Z,90.82
2023-03-23T20:19:56.756Z,89.23
2023-03-23T20:22:26.930Z,89.95
2023-03-23T20:25:00.621Z,90.33
2023-03-23T20:27:32.358Z,91.68
2023-03-23T20:30:04.245Z,91.70
2023-03-23T20:32:35.488Z,91.80
2023-03-23T20:35:09.504Z,91.93
2023-03-23T20:37:41.368Z,92.81
2023-03-23T20:40:16.648Z,93.34
2023-03-23T20:42:46.823Z,93.42
2023-03-23T20:45:19.238Z,92.91
2023-03-23T20:47:49.682Z,94.02
2023-03-23T20:50:20.646Z,94.05
2023-03-23T20:52:50.989Z,93.82
2023-03-23T20:55:23.795Z,95.29
2023-03-23T20:57:54.051Z,94.98
2023-03-23T21:00:24.678Z,95.53
2023-03-23T21:02:56.162Z,96.62
2023-03-23T21:05:26.539Z,97.12
2023-03-23T21:07:58.193Z,96.31
2023-03-23T21:10:32.884Z,96.74
2023-03-23T21:13:03.136Z,97.67
2023-03-23T21:15:34.011Z,98.38
2023-03-23T21:18:04.252Z,99.57
2023-03-23T21:20:34.852Z,99.79
2023-03-23T21:23:06.012Z,99.25
2023-03-23T21:25:39.455Z,98.71
2023-03-23T21:28:09.952Z,99.03
2023-03-23T21:30:42.214Z,98.64
2023-03-23T21:33:14.246Z,98.78
2023-03-23T21:35:44.756Z,99.41
2023-03-23T21:38:20.073Z,100.00
2023-03-23T21:40:52.974Z,99.20
2023-03-23T21:43:27.874Z,99.58
2023-03-23T21:46:03.194Z,98.01
2023-03-23T21:48:33.524Z,99.20
2023-03-23T21:51:08.744Z,98.86
2023-03-23T21:53:39.827Z,98.65
2023-03-23T21:56:14.720Z,100.00
2023-03-23T21:58:45.584Z,100.00
2023-03-23T22:01:16.482Z,100.00
2023-03-23T22:03:47.324Z,100.00
2023-03-23T22:06:21.142Z,100.00
2023-03-23T22:08:51.657Z,100.00
2023-03-23T22:11:27.722Z,100.00
2023-03-23T22:14:00.132Z,100.00
2023-03-23T22:16:30.630Z,100.00
2023-03-23T22:19:02.373Z,100.00
2023-03-23T22:21:32.709Z,100.00
2023-03-23T22:24:04.405Z,100.00
2023-03-23T22:26:37.626Z,100.00
2023-03-23T22:29:10.614Z,100.00
2023-03-23T22:31:42.676Z,100.00
2023-03-23T22:34:13.909Z,100.00
2023-03-23T22:36:44.768Z,100.00
2023-03-23T22:39:15.042Z,100.00
2023-03-23T22:41:48.832Z,100.00
2023-03-23T22:44:21.159Z,100.00
2023-03-23T22:46:51.578Z,100.00
2023-03-23T22:49:21.891Z,100.00
2023-03-23T22:51:52.202Z,100.00
2023-03-23T22:54:22.509Z,100.00
2023-03-23T22:56:55.664Z,100.00
2023-03-23T22:59:26.246Z,100.00
2023-03-23T23:01:56.645Z,100.00
2023-03-23T23:04:26.967Z,100.00
2023-03-23T23:07:10.065Z,100.00
2023-03-23T23:09:42.627Z,100.00
2023-03-23T23:12:18.439Z,100.00
2023-03-23T23:14:48.808Z,100.00
2023-03-23T23:17:19.109Z,100.00
2023-03-23T23:19:49.520Z,100.00
2023-03-23T23:22:19.796Z,100.00
2023-03-23T23:24:50.100Z,100.00
2023-03-23T23:27:23.056Z,100.00
2023-03-23T23:29:53.373Z,100.00
2023-03-23T23:32:23.865Z,100.00
2023-03-23T23:34:54.747Z,100.00
2023-03-23T23:37:25.053Z,100.00
2023-03-23T23:39:55.874Z,100.00
2023-03-23T23:42:28.827Z,100.00
2023-03-23T23:44:59.487Z,100.00
2023-03-23T23:47:30.251Z,100.00
2023-03-23T23:50:01.834Z,100.00
2023-03-23T23:52:32.180Z,100.00
2023-03-23T23:55:02.514Z,100.00
2023-03-23T23:57:35.992Z,100.00
